createdAt,value
2024-01-06T00:00:16.397Z,4.87
2024-01-06T00:02:44.140Z,4.87
2024-01-06T00:05:11.815Z,4.86
2024-01-06T00:07:39.654Z,4.85
2024-01-06T00:10:08.081Z,4.82
2024-01-06T00:12:36.220Z,4.81
2024-01-06T00:15:06.764Z,4.80
2024-01-06T00:17:34.502Z,4.76
2024-01-06T00:20:03.660Z,4.74
2024-01-06T00:22:31.526Z,4.71
2024-01-06T00:24:59.252Z,4.73
2024-01-06T00:27:27.003Z,4.73
2024-01-06T00:29:54.711Z,4.74
2024-01-06T00:32:23.744Z,4.73
2024-01-06T00:34:51.211Z,4.78
2024-01-06T00:37:18.900Z,4.76
2024-01-06T00:39:46.578Z,4.75
2024-01-06T00:42:14.649Z,4.76
2024-01-06T00:44:42.269Z,4.76
2024-01-06T00:47:09.918Z,4.75
2024-01-06T00:49:38.963Z,4.72
2024-01-06T00:52:06.998Z,4.73
2024-01-06T00:54:34.666Z,4.73
2024-01-06T00:57:02.306Z,4.70
2024-01-06T00:59:29.860Z,4.70
2024-01-06T01:01:57.543Z,4.70
2024-01-06T01:04:25.361Z,4.69
2024-01-06T01:06:54.832Z,4.65
2024-01-06T01:09:22.560Z,4.59
2024-01-06T01:11:50.250Z,4.58
2024-01-06T01:14:19.869Z,4.54
2024-01-06T01:16:47.546Z,4.55
2024-01-06T01:19:15.576Z,4.53
2024-01-06T01:21:43.357Z,4.54
2024-01-06T01:24:12.435Z,4.53
2024-01-06T01:26:40.160Z,4.53
2024-01-06T01:29:07.748Z,4.51
2024-01-06T01:31:35.842Z,4.52
2024-01-06T01:34:03.678Z,4.53
2024-01-06T01:36:31.636Z,4.53
2024-01-06T01:38:59.276Z,4.53
2024-01-06T01:41:28.300Z,4.53
2024-01-06T01:43:59.594Z,4.53
2024-01-06T01:46:27.916Z,4.58
2024-01-06T01:48:56.724Z,4.57
2024-01-06T01:51:30.267Z,4.56
2024-01-06T01:53:58.531Z,4.54
2024-01-06T01:56:27.084Z,4.54
2024-01-06T01:58:56.569Z,4.56
2024-01-06T02:01:24.357Z,4.52
2024-01-06T02:03:52.131Z,4.50
2024-01-06T02:06:19.936Z,4.50
2024-01-06T02:08:47.523Z,4.47
2024-01-06T02:11:15.688Z,4.48
2024-01-06T02:13:43.591Z,4.47
2024-01-06T02:16:12.692Z,4.43
2024-01-06T02:18:40.126Z,4.38
2024-01-06T02:21:08.246Z,4.37
2024-01-06T02:23:38.177Z,4.37
2024-01-06T02:26:05.976Z,4.34
2024-01-06T02:28:33.591Z,4.33
2024-01-06T02:31:01.440Z,4.29
2024-01-06T02:33:29.249Z,4.27
2024-01-06T02:35:57.018Z,4.29
2024-01-06T02:38:24.633Z,4.29
2024-01-06T02:40:53.614Z,4.27
2024-01-06T02:43:21.005Z,4.23
2024-01-06T02:45:49.036Z,4.23
2024-01-06T02:48:17.235Z,4.23
2024-01-06T02:50:44.999Z,4.22
2024-01-06T02:53:13.913Z,4.19
2024-01-06T02:55:41.661Z,4.18
2024-01-06T02:58:10.705Z,4.19
2024-01-06T03:00:38.528Z,4.20
2024-01-06T03:03:06.296Z,4.16
2024-01-06T03:05:33.959Z,4.15
2024-01-06T03:08:01.819Z,4.15
2024-01-06T03:10:29.427Z,4.13
2024-01-06T03:12:57.054Z,4.15
2024-01-06T03:15:26.412Z,4.15
2024-01-06T03:17:54.205Z,4.16
2024-01-06T03:20:21.901Z,4.14
2024-01-06T03:22:50.620Z,4.09
2024-01-06T03:25:18.306Z,4.06
2024-01-06T03:27:45.941Z,4.04
2024-01-06T03:30:14.486Z,4.04
2024-01-06T03:32:43.535Z,4.04
2024-01-06T03:35:11.199Z,3.98
2024-01-06T03:37:38.802Z,3.98
2024-01-06T03:40:07.630Z,3.96
2024-01-06T03:42:35.385Z,3.94
2024-01-06T03:45:03.161Z,3.93
2024-01-06T03:47:31.011Z,3.91
2024-01-06T03:50:00.224Z,3.92
2024-01-06T03:52:27.844Z,3.88
2024-01-06T03:54:55.439Z,3.87
2024-01-06T03:57:23.239Z,3.84
2024-01-06T03:59:50.810Z,3.78
2024-01-06T04:02:18.415Z,3.80
2024-01-06T04:04:46.043Z,3.77
2024-01-06T04:07:15.121Z,3.77
2024-01-06T04:09:43.653Z,3.74
2024-01-06T04:12:11.375Z,3.73
2024-01-06T04:14:39.132Z,3.67
2024-01-06T04:17:06.757Z,3.66
2024-01-06T04:19:34.424Z,3.64
2024-01-06T04:22:02.265Z,3.62
2024-01-06T04:24:31.464Z,3.58
2024-01-06T04:26:59.060Z,3.63
2024-01-06T04:29:26.734Z,3.63
2024-01-06T04:31:54.352Z,3.64
2024-01-06T04:34:22.176Z,3.61
2024-01-06T04:36:50.879Z,3.62
2024-01-06T04:39:18.721Z,3.58
2024-01-06T04:41:47.783Z,3.58
2024-01-06T04:44:15.468Z,3.60
2024-01-06T04:46:43.013Z,3.59
2024-01-06T04:49:11.652Z,3.59
2024-01-06T04:51:39.440Z,3.58
2024-01-06T04:54:06.981Z,3.55
2024-01-06T04:56:36.669Z,3.54
2024-01-06T04:59:06.400Z,3.55
2024-01-06T05:01:34.548Z,3.53
2024-01-06T05:04:02.390Z,3.54
2024-01-06T05:06:30.130Z,3.50
2024-01-06T05:08:58.214Z,3.50
2024-01-06T05:11:25.987Z,3.47
2024-01-06T05:13:53.571Z,3.47
2024-01-06T05:16:22.558Z,3.46
2024-01-06T05:18:50.021Z,3.44
2024-01-06T05:21:17.922Z,3.44
2024-01-06T05:23:45.589Z,3.44
2024-01-06T05:26:14.822Z,3.46
2024-01-06T05:28:42.421Z,3.43
2024-01-06T05:31:10.214Z,3.43
2024-01-06T05:33:39.350Z,3.41
2024-01-06T05:36:07.498Z,3.40
2024-01-06T05:38:35.103Z,3.39
2024-01-06T05:41:03.270Z,3.35
2024-01-06T05:43:30.844Z,3.34
2024-01-06T05:45:58.445Z,3.34
2024-01-06T05:48:26.454Z,3.32
2024-01-06T05:50:55.550Z,3.31
2024-01-06T05:53:23.212Z,3.29
2024-01-06T05:55:51.699Z,3.29
2024-01-06T05:58:19.288Z,3.18
2024-01-06T06:00:48.259Z,3.20
2024-01-06T06:03:15.928Z,3.22
2024-01-06T06:05:43.744Z,3.17
2024-01-06T06:08:12.803Z,3.16
2024-01-06T06:10:53.204Z,3.17
2024-01-06T06:13:20.982Z,3.14
2024-01-06T06:15:48.665Z,3.14
2024-01-06T06:18:17.488Z,3.11
2024-01-06T06:20:45.252Z,3.11
2024-01-06T06:23:14.340Z,3.10
2024-01-06T06:25:42.189Z,3.14
2024-01-06T06:28:09.794Z,3.17
2024-01-06T06:30:37.500Z,3.15
2024-01-06T06:33:05.892Z,3.20
2024-01-06T06:35:34.664Z,3.21
2024-01-06T06:38:02.383Z,3.21
2024-01-06T06:40:31.562Z,3.21
2024-01-06T06:42:59.139Z,3.14
2024-01-06T06:45:26.895Z,3.12
2024-01-06T06:47:54.598Z,3.12
2024-01-06T06:50:22.158Z,3.10
2024-01-06T06:52:49.836Z,3.11
2024-01-06T06:55:17.580Z,3.09
2024-01-06T06:57:46.969Z,3.12
2024-01-06T07:00:16.192Z,3.14
2024-01-06T07:02:43.943Z,3.13
2024-01-06T07:05:11.626Z,3.18
2024-01-06T07:07:39.278Z,3.18
2024-01-06T07:10:08.494Z,3.24
2024-01-06T07:12:36.174Z,3.24
2024-01-06T07:15:07.928Z,3.23
2024-01-06T07:17:35.849Z,3.22
2024-01-06T07:20:04.227Z,3.19
2024-01-06T07:22:31.918Z,3.18
2024-01-06T07:24:59.653Z,3.17
2024-01-06T07:27:27.907Z,3.19
2024-01-06T07:29:56.647Z,3.18
2024-01-06T07:32:26.093Z,3.20
2024-01-06T07:34:54.162Z,3.21
2024-01-06T07:37:21.908Z,3.21
2024-01-06T07:39:49.665Z,3.24
2024-01-06T07:42:17.309Z,3.27
2024-01-06T07:44:45.613Z,3.31
2024-01-06T07:47:13.351Z,3.34
2024-01-06T07:49:42.718Z,3.36
2024-01-06T07:52:10.549Z,3.33
2024-01-06T07:54:38.182Z,3.34
2024-01-06T07:57:06.022Z,3.37
2024-01-06T07:59:34.030Z,3.42
2024-01-06T08:02:01.665Z,3.41
2024-01-06T08:04:29.344Z,3.42
2024-01-06T08:06:58.514Z,3.45
2024-01-06T08:09:26.212Z,3.49
2024-01-06T08:11:54.453Z,3.50
2024-01-06T08:14:22.097Z,3.52
2024-01-06T08:16:49.742Z,3.52
2024-01-06T08:19:17.487Z,3.53
2024-01-06T08:21:45.269Z,3.56
2024-01-06T08:24:14.436Z,3.59
2024-01-06T08:26:42.124Z,3.62
2024-01-06T08:29:09.852Z,3.64
2024-01-06T08:31:37.603Z,3.66
2024-01-06T08:34:07.574Z,3.73
2024-01-06T08:36:36.002Z,3.77
2024-01-06T08:39:03.912Z,3.73
2024-01-06T08:41:33.079Z,3.82
2024-01-06T08:44:00.780Z,3.83
2024-01-06T08:46:28.430Z,3.87
2024-01-06T08:48:56.165Z,3.89
2024-01-06T08:51:25.271Z,3.93
2024-01-06T08:53:53.094Z,3.78
2024-01-06T08:56:21.385Z,3.94
2024-01-06T08:58:50.433Z,3.94
2024-01-06T09:01:18.330Z,3.98
2024-01-06T09:03:46.205Z,4.02
2024-01-06T09:06:14.883Z,4.07
2024-01-06T09:08:42.782Z,4.08
2024-01-06T09:11:10.361Z,4.18
2024-01-06T09:13:37.966Z,4.21
2024-01-06T09:16:07.448Z,4.28
2024-01-06T09:18:35.344Z,4.31
2024-01-06T09:21:04.300Z,4.36
2024-01-06T09:23:33.037Z,4.43
2024-01-06T09:26:00.857Z,4.48
2024-01-06T09:28:29.037Z,4.46
2024-01-06T09:30:57.205Z,4.58
2024-01-06T09:33:26.958Z,4.67
2024-01-06T09:35:54.898Z,4.68
2024-01-06T09:38:22.565Z,4.64
2024-01-06T09:40:50.419Z,4.59
2024-01-06T09:43:18.216Z,4.62
2024-01-06T09:45:49.805Z,4.65
2024-01-06T09:48:18.832Z,4.70
2024-01-06T09:50:49.664Z,4.72
2024-01-06T09:53:18.234Z,4.78
2024-01-06T09:55:46.292Z,4.83
2024-01-06T09:58:14.638Z,4.84
2024-01-06T10:00:42.334Z,4.83
2024-01-06T10:03:11.065Z,4.80
2024-01-06T10:05:38.719Z,4.83
2024-01-06T10:08:07.922Z,4.78
2024-01-06T10:10:35.748Z,4.84
2024-01-06T10:13:04.025Z,4.85
2024-01-06T10:15:32.105Z,4.83
2024-01-06T10:18:00.163Z,4.81
2024-01-06T10:20:27.992Z,4.90
2024-01-06T10:22:55.821Z,4.93
2024-01-06T10:25:26.352Z,4.86
2024-01-06T10:27:54.432Z,4.82
2024-01-06T10:30:22.260Z,4.79
2024-01-06T10:32:51.034Z,4.82
2024-01-06T10:35:19.911Z,4.92
2024-01-06T10:37:49.854Z,4.91
2024-01-06T10:40:18.181Z,4.96
2024-01-06T10:42:47.459Z,5.02
2024-01-06T10:45:15.879Z,5.10
2024-01-06T10:47:44.917Z,5.12
2024-01-06T10:50:14.326Z,5.21
2024-01-06T10:52:42.892Z,5.30
2024-01-06T10:55:11.319Z,5.34
2024-01-06T10:57:39.750Z,5.40
2024-01-06T11:00:11.244Z,5.51
2024-01-06T11:02:40.193Z,5.56
2024-01-06T11:05:09.255Z,5.44
2024-01-06T11:07:37.502Z,5.55
2024-01-06T11:10:12.034Z,5.55
2024-01-06T11:12:39.724Z,5.59
2024-01-06T11:15:09.497Z,5.57
2024-01-06T11:17:57.330Z,5.49
2024-01-06T11:20:25.586Z,5.49
2024-01-06T11:22:53.438Z,5.44
2024-01-06T11:25:22.533Z,5.45
2024-01-06T11:27:51.689Z,5.41
2024-01-06T11:30:25.422Z,5.38
2024-01-06T11:32:54.636Z,5.35
2024-01-06T11:35:23.178Z,5.06
2024-01-06T11:37:58.712Z,5.16
2024-01-06T11:40:33.539Z,5.20
2024-01-06T11:43:03.987Z,5.21
2024-01-06T11:45:33.946Z,5.20
2024-01-06T11:48:04.590Z,5.22
2024-01-06T11:50:34.085Z,5.10
2024-01-06T11:53:02.665Z,5.12
2024-01-06T11:55:33.014Z,4.99
2024-01-06T11:58:05.549Z,5.02
2024-01-06T12:00:36.506Z,5.10
2024-01-06T12:03:05.009Z,5.27
2024-01-06T12:05:32.669Z,5.23
2024-01-06T12:08:03.151Z,5.22
2024-01-06T12:10:30.976Z,5.21
2024-01-06T12:13:01.404Z,5.20
2024-01-06T12:15:31.027Z,5.18
2024-01-06T12:18:00.484Z,5.03
2024-01-06T12:20:30.097Z,5.05
2024-01-06T12:22:58.004Z,5.01
2024-01-06T12:25:27.195Z,5.00
2024-01-06T12:27:55.248Z,4.93
2024-01-06T12:30:24.859Z,4.92
2024-01-06T12:32:55.860Z,4.92
2024-01-06T12:35:25.374Z,4.98
2024-01-06T12:37:53.199Z,4.88
2024-01-06T12:40:22.695Z,4.93
2024-01-06T12:42:50.495Z,4.92
2024-01-06T12:45:18.465Z,5.01
2024-01-06T12:47:46.451Z,5.05
2024-01-06T12:50:15.768Z,5.10
2024-01-06T12:52:46.511Z,5.11
2024-01-06T12:55:14.705Z,5.10
2024-01-06T12:57:43.319Z,5.11
2024-01-06T13:00:13.353Z,5.05
2024-01-06T13:02:41.257Z,5.07
2024-01-06T13:05:10.515Z,5.10
2024-01-06T13:07:40.288Z,5.12
2024-01-06T13:10:10.284Z,5.03
2024-01-06T13:12:38.273Z,5.01
2024-01-06T13:15:07.334Z,5.04
2024-01-06T13:17:35.374Z,5.03
2024-01-06T13:20:03.389Z,5.02
2024-01-06T13:22:31.607Z,5.01
2024-01-06T13:25:00.308Z,4.99
2024-01-06T13:27:30.064Z,5.01
2024-01-06T13:29:57.748Z,5.02
2024-01-06T13:32:25.435Z,4.98
2024-01-06T13:34:56.089Z,4.94
2024-01-06T13:37:23.720Z,4.94
2024-01-06T13:39:51.358Z,4.91
2024-01-06T13:42:20.118Z,4.91
2024-01-06T13:44:49.463Z,4.88
2024-01-06T13:47:17.109Z,4.83
2024-01-06T13:49:44.807Z,4.81
2024-01-06T13:52:12.533Z,4.82
2024-01-06T13:54:40.255Z,4.83
2024-01-06T13:57:08.062Z,4.84
2024-01-06T13:59:39.524Z,4.82
2024-01-06T14:02:09.288Z,4.88
2024-01-06T14:04:37.063Z,4.86
2024-01-06T14:07:06.011Z,4.69
2024-01-06T14:09:35.154Z,4.86
2024-01-06T14:12:03.132Z,4.74
2024-01-06T14:14:32.491Z,4.76
2024-01-06T14:17:00.180Z,4.78
2024-01-06T14:19:29.228Z,4.79
2024-01-06T14:21:57.202Z,4.79
2024-01-06T14:24:25.911Z,4.81
2024-01-06T14:26:56.161Z,4.80
2024-01-06T14:29:24.034Z,4.82
2024-01-06T14:31:52.071Z,4.82
2024-01-06T14:34:19.941Z,4.80
2024-01-06T14:36:49.351Z,4.76
2024-01-06T14:39:20.116Z,4.74
2024-01-06T14:41:48.070Z,4.73
2024-01-06T14:44:16.025Z,4.68
2024-01-06T14:46:43.796Z,4.71
2024-01-06T14:49:12.080Z,4.69
2024-01-06T14:51:39.792Z,4.61
2024-01-06T14:54:12.534Z,4.61
2024-01-06T14:56:41.177Z,4.62
2024-01-06T14:59:08.814Z,4.62
2024-01-06T15:01:36.717Z,4.61
2024-01-06T15:04:05.162Z,4.57
2024-01-06T15:06:32.917Z,4.58
2024-01-06T15:09:00.605Z,4.53
2024-01-06T15:11:29.657Z,4.54
2024-01-06T15:13:57.489Z,4.49
2024-01-06T15:16:25.134Z,4.47
2024-01-06T15:18:53.330Z,4.47
2024-01-06T15:21:24.310Z,4.47
2024-01-06T15:23:52.138Z,4.45
2024-01-06T15:26:22.980Z,4.45
2024-01-06T15:28:52.293Z,4.45
2024-01-06T15:31:20.196Z,4.41
2024-01-06T15:33:49.076Z,4.40
2024-01-06T15:36:16.926Z,4.39
2024-01-06T15:38:44.544Z,4.33
2024-01-06T15:41:12.269Z,4.35
2024-01-06T15:43:39.942Z,4.33
2024-01-06T15:46:09.217Z,4.33
2024-01-06T15:48:37.724Z,4.35
2024-01-06T15:51:05.616Z,4.34
2024-01-06T15:53:34.686Z,4.31
2024-01-06T15:56:02.745Z,4.29
2024-01-06T15:58:30.706Z,4.27
2024-01-06T16:00:58.448Z,4.26
2024-01-06T16:03:27.716Z,4.23
2024-01-06T16:05:55.953Z,4.18
2024-01-06T16:08:23.714Z,4.17
2024-01-06T16:10:51.380Z,4.16
2024-01-06T16:13:19.328Z,4.18
2024-01-06T16:15:47.219Z,4.18
2024-01-06T16:18:14.964Z,4.19
2024-01-06T16:20:44.217Z,4.16
2024-01-06T16:23:14.767Z,4.17
2024-01-06T16:25:42.632Z,4.18
2024-01-06T16:28:13.012Z,4.17
2024-01-06T16:30:41.133Z,4.18
2024-01-06T16:33:09.689Z,4.19
2024-01-06T16:35:38.580Z,4.19
2024-01-06T16:38:07.660Z,4.21
2024-01-06T16:40:35.351Z,4.17
2024-01-06T16:43:03.223Z,4.19
2024-01-06T16:45:32.609Z,4.19
2024-01-06T16:48:00.504Z,4.15
2024-01-06T16:50:28.691Z,4.16
2024-01-06T16:52:56.520Z,4.17
2024-01-06T16:55:25.637Z,4.14
2024-01-06T16:57:53.442Z,4.14
2024-01-06T17:00:21.521Z,4.14
2024-01-06T17:02:49.171Z,4.12
2024-01-06T17:05:16.901Z,4.13
2024-01-06T17:07:48.355Z,4.13
2024-01-06T17:10:16.799Z,4.13
2024-01-06T17:12:47.609Z,4.09
2024-01-06T17:15:16.419Z,4.14
2024-01-06T17:17:44.205Z,4.11
2024-01-06T17:20:12.391Z,4.10
2024-01-06T17:22:40.063Z,4.13
2024-01-06T17:25:15.894Z,4.10
2024-01-06T17:27:48.559Z,4.08
2024-01-06T17:30:17.161Z,4.03
2024-01-06T17:32:44.874Z,4.05
2024-01-06T17:35:12.657Z,4.01
2024-01-06T17:37:40.423Z,4.00
2024-01-06T17:40:09.215Z,3.90
2024-01-06T17:42:37.028Z,4.00
2024-01-06T17:45:07.270Z,4.00
2024-01-06T17:47:37.088Z,4.02
2024-01-06T17:50:05.327Z,3.99
2024-01-06T17:52:33.048Z,3.99
2024-01-06T17:55:00.980Z,4.00
2024-01-06T17:57:34.342Z,3.98
2024-01-06T18:00:02.220Z,3.96
2024-01-06T18:02:36.324Z,3.98
2024-01-06T18:05:07.386Z,3.97
2024-01-06T18:07:35.764Z,3.96
2024-01-06T18:10:06.782Z,3.96
2024-01-06T18:12:37.174Z,3.94
2024-01-06T18:15:05.986Z,3.96
2024-01-06T18:17:36.699Z,3.89
2024-01-06T18:20:05.083Z,3.93
2024-01-06T18:22:32.699Z,3.93
2024-01-06T18:25:00.659Z,3.88
2024-01-06T18:27:28.341Z,3.92
2024-01-06T18:29:56.009Z,3.91
2024-01-06T18:32:23.754Z,3.89
2024-01-06T18:34:52.923Z,3.92
2024-01-06T18:37:20.677Z,3.89
2024-01-06T18:39:48.408Z,3.91
2024-01-06T18:42:17.567Z,3.92
2024-01-06T18:44:45.253Z,3.89
2024-01-06T18:47:15.373Z,3.89
2024-01-06T18:49:43.394Z,3.91
2024-01-06T18:52:12.901Z,3.92
2024-01-06T18:54:42.548Z,3.92
2024-01-06T18:57:14.879Z,3.91
2024-01-06T18:59:42.908Z,3.90
2024-01-06T19:02:11.468Z,3.91
2024-01-06T19:04:39.228Z,3.90
2024-01-06T19:07:06.955Z,3.91
2024-01-06T19:09:36.186Z,3.93
2024-01-06T19:12:06.873Z,3.92
2024-01-06T19:14:37.119Z,3.89
2024-01-06T19:17:05.629Z,3.87
2024-01-06T19:19:35.984Z,3.89
2024-01-06T19:22:04.041Z,3.86
2024-01-06T19:24:36.469Z,3.87
2024-01-06T19:27:12.191Z,3.88
2024-01-06T19:29:47.486Z,3.86
2024-01-06T19:32:16.714Z,3.86
2024-01-06T19:34:44.688Z,3.83
2024-01-06T19:37:12.671Z,3.85
2024-01-06T19:39:40.332Z,3.85
2024-01-06T19:42:08.538Z,3.84
2024-01-06T19:44:37.803Z,3.83
2024-01-06T19:47:05.741Z,3.82
2024-01-06T19:49:33.628Z,3.77
2024-01-06T19:52:01.528Z,3.82
2024-01-06T19:54:29.243Z,3.78
2024-01-06T19:56:56.937Z,3.79
2024-01-06T19:59:24.606Z,3.76
2024-01-06T20:01:53.618Z,3.74
2024-01-06T20:04:21.405Z,3.71
2024-01-06T20:06:49.148Z,3.72
2024-01-06T20:09:16.773Z,3.73
2024-01-06T20:11:44.313Z,3.72
2024-01-06T20:14:11.905Z,3.72
2024-01-06T20:16:39.825Z,3.71
2024-01-06T20:19:09.037Z,3.73
2024-01-06T20:21:36.827Z,3.71
2024-01-06T20:24:05.918Z,3.73
2024-01-06T20:26:33.368Z,3.74
2024-01-06T20:29:00.906Z,3.74
2024-01-06T20:31:29.235Z,3.73
2024-01-06T20:33:57.334Z,3.74
2024-01-06T20:36:26.590Z,3.74
2024-01-06T20:38:54.005Z,3.77
2024-01-06T20:41:22.541Z,3.75
2024-01-06T20:43:50.081Z,3.72
2024-01-06T20:46:18.794Z,3.72
2024-01-06T20:48:47.142Z,3.70
2024-01-06T20:51:17.207Z,3.71
2024-01-06T20:53:46.399Z,3.73
2024-01-06T20:56:14.497Z,3.75
2024-01-06T20:58:42.499Z,3.75
2024-01-06T21:01:10.265Z,3.77
2024-01-06T21:03:39.973Z,3.78
2024-01-06T21:06:07.945Z,3.77
2024-01-06T21:08:36.205Z,3.73
2024-01-06T21:11:07.436Z,3.79
2024-01-06T21:13:35.200Z,3.75
2024-01-06T21:16:05.714Z,3.77
2024-01-06T21:18:33.711Z,3.78
2024-01-06T21:21:01.500Z,3.78
2024-01-06T21:23:39.651Z,3.78
2024-01-06T21:26:13.909Z,3.78
2024-01-06T21:28:41.528Z,3.78
2024-01-06T21:31:10.239Z,3.80
2024-01-06T21:33:38.200Z,3.79
2024-01-06T21:36:06.113Z,3.78
2024-01-06T21:38:33.756Z,3.80
2024-01-06T21:41:01.414Z,3.80
2024-01-06T21:43:30.449Z,3.81
2024-01-06T21:45:58.400Z,3.79
2024-01-06T21:48:26.122Z,3.80
2024-01-06T21:50:54.529Z,3.80
2024-01-06T21:53:22.198Z,3.79
2024-01-06T21:55:50.582Z,3.74
2024-01-06T21:58:18.233Z,3.79
2024-01-06T22:00:47.418Z,3.78
2024-01-06T22:03:15.667Z,3.77
2024-01-06T22:05:43.568Z,3.79
2024-01-06T22:08:11.216Z,3.79
2024-01-06T22:10:40.128Z,3.78
2024-01-06T22:13:07.780Z,3.78
2024-01-06T22:15:36.611Z,3.80
2024-01-06T22:18:06.976Z,3.77
2024-01-06T22:20:34.720Z,3.78
2024-01-06T22:23:02.472Z,3.75
2024-01-06T22:25:30.116Z,3.74
2024-01-06T22:27:58.032Z,3.75
2024-01-06T22:30:25.991Z,3.73
2024-01-06T22:32:54.049Z,3.71
2024-01-06T22:35:23.176Z,3.74
2024-01-06T22:37:50.798Z,3.70
2024-01-06T22:40:21.457Z,3.69
2024-01-06T22:42:49.193Z,3.69
2024-01-06T22:45:16.929Z,3.68
2024-01-06T22:47:44.632Z,3.65
2024-01-06T22:50:13.198Z,3.63
2024-01-06T22:52:42.265Z,3.67
2024-01-06T22:55:09.961Z,3.66
2024-01-06T22:57:38.312Z,3.65
2024-01-06T23:00:19.318Z,3.64
2024-01-06T23:02:47.261Z,3.63
2024-01-06T23:05:15.020Z,3.63
2024-01-06T23:07:44.316Z,3.67
2024-01-06T23:10:13.030Z,3.66
2024-01-06T23:12:40.796Z,3.64
2024-01-06T23:15:10.682Z,3.62
2024-01-06T23:17:38.273Z,3.65
2024-01-06T23:20:06.479Z,3.64
2024-01-06T23:22:34.298Z,3.64
2024-01-06T23:25:03.457Z,3.63
2024-01-06T23:27:31.293Z,3.62
2024-01-06T23:29:58.926Z,3.61
2024-01-06T23:32:26.678Z,3.62
2024-01-06T23:34:54.325Z,3.60
2024-01-06T23:37:21.913Z,3.64
2024-01-06T23:39:49.771Z,3.61
2024-01-06T23:42:20.476Z,3.62
2024-01-06T23:44:48.435Z,3.62
2024-01-06T23:47:16.053Z,3.59
2024-01-06T23:49:43.896Z,3.62
2024-01-06T23:52:11.667Z,3.63
2024-01-06T23:54:39.892Z,3.62
2024-01-06T23:57:08.086Z,3.63
2024-01-06T23:59:40.043Z,3.58
